Time;durP1;ratioP1;P1;durP2;ratioP2;P2;SDS_P1;SDS_P2;PMS_P1;PMS_P2;Temp;Humidity;BMP_temperature;BMP_pressure;BME280_temperature;BME280_humidity;BME280_pressure;Samples;Min_cycle;Max_cycle;Signal;HPM_P1;HPM_P2
2020/12/30 00:03:46;;;;;;;34.27;20.87;;;;;2.20;99188.00;;;;10422428;28;20230;-75
2020/12/30 00:08:48;;;;;;;34.27;20.27;;;;;2.10;99207.00;;;;10403977;28;20195;-75
2020/12/30 00:13:49;;;;;;;37.60;20.67;;;;;2.00;99218.00;;;;10425180;28;20273;-75
2020/12/30 00:18:51;;;;;;;37.10;19.30;;;;;1.80;99218.00;;;;10421324;28;20658;-75
2020/12/30 00:23:52;;;;;;;32.83;19.53;;;;;1.70;99223.00;;;;10410163;28;20689;-74
2020/12/30 00:28:53;;;;;;;34.00;20.17;;;;;1.50;99220.00;;;;10430398;28;20746;-75
2020/12/30 00:33:54;;;;;;;35.13;20.27;;;;;1.40;99217.00;;;;10414776;28;20258;-75
2020/12/30 00:38:56;;;;;;;37.30;21.67;;;;;1.50;99216.00;;;;10369190;28;20261;-75
2020/12/30 00:43:57;;;;;;;38.23;19.80;;;;;1.70;99224.00;;;;10408974;28;20209;-75
2020/12/30 00:48:59;;;;;;;34.57;19.70;;;;;1.90;99223.00;;;;10417994;28;20216;-74
2020/12/30 00:54:03;;;;;;;41.33;22.33;;;;;2.10;99222.00;;;;10433429;28;20266;-75
2020/12/30 00:59:05;;;;;;;47.37;24.50;;;;;2.20;99230.00;;;;10398566;28;20199;-74
2020/12/30 01:04:07;;;;;;;39.93;22.20;;;;;2.30;99242.00;;;;10387200;28;20203;-75
2020/12/30 01:09:08;;;;;;;37.33;20.87;;;;;2.30;99251.00;;;;10426994;28;20195;-75
2020/12/30 01:14:10;;;;;;;34.93;21.67;;;;;2.10;99261.00;;;;10426089;28;20191;-74
2020/12/30 01:19:12;;;;;;;32.77;19.77;;;;;2.00;99255.00;;;;10428518;28;20198;-74
2020/12/30 01:24:13;;;;;;;38.50;20.57;;;;;1.80;99260.00;;;;10417045;28;20214;-74
2020/12/30 01:29:15;;;;;;;33.57;19.50;;;;;1.70;99270.00;;;;10394217;28;20557;-74
2020/12/30 01:34:16;;;;;;;45.00;20.43;;;;;1.70;99275.00;;;;10411277;28;20190;-74
2020/12/30 01:39:18;;;;;;;39.23;20.70;;;;;1.60;99285.00;;;;10389769;28;20198;-75
2020/12/30 01:44:19;;;;;;;27.87;18.33;;;;;1.50;99289.00;;;;10426401;28;20214;-75
2020/12/30 01:49:22;;;;;;;32.97;18.47;;;;;1.30;99305.00;;;;10442239;28;20218;-75
2020/12/30 01:54:27;;;;;;;32.30;19.63;;;;;1.10;99296.00;;;;10397882;28;20198;-75
2020/12/30 01:59:28;;;;;;;32.87;19.50;;;;;1.00;99312.00;;;;10394935;28;20198;-74
2020/12/30 02:04:47;;;;;;;33.63;19.43;;;;;0.90;99316.00;;;;10417966;28;20553;-74
2020/12/30 02:09:49;;;;;;;35.80;18.87;;;;;0.90;99322.00;;;;10391010;28;20217;-74
2020/12/30 02:14:50;;;;;;;38.17;20.40;;;;;0.90;99321.00;;;;10404791;28;20590;-74
2020/12/30 02:19:52;;;;;;;40.13;20.57;;;;;0.90;99329.00;;;;10408320;28;20199;-74
2020/12/30 02:24:53;;;;;;;34.80;19.90;;;;;0.90;99322.00;;;;10426775;28;20281;-74
2020/12/30 02:29:54;;;;;;;32.00;19.87;;;;;0.80;99317.00;;;;10431555;28;20186;-74
2020/12/30 02:34:56;;;;;;;32.27;18.50;;;;;0.70;99328.00;;;;10415827;28;20214;-75
2020/12/30 02:39:57;;;;;;;36.10;18.83;;;;;0.60;99331.00;;;;10437817;28;20226;-74
2020/12/30 02:45:07;;;;;;;42.43;20.50;;;;;0.60;99334.00;;;;10431072;28;20306;-74
2020/12/30 02:50:09;;;;;;;36.93;20.13;;;;;0.60;99344.00;;;;10400907;28;20205;-74
2020/12/30 02:55:10;;;;;;;38.87;21.07;;;;;0.60;99352.00;;;;10379009;28;20221;-74
2020/12/30 03:00:11;;;;;;;39.17;20.67;;;;;0.60;99351.00;;;;10392486;28;20561;-74
2020/12/30 03:05:13;;;;;;;39.83;21.77;;;;;0.90;99358.00;;;;10429028;28;20213;-74
2020/12/30 03:10:14;;;;;;;51.53;25.17;;;;;1.10;99364.00;;;;10439864;28;20609;-74
2020/12/30 03:15:16;;;;;;;57.83;27.10;;;;;1.40;99356.00;;;;10413688;28;20210;-74
2020/12/30 03:20:18;;;;;;;61.17;27.40;;;;;1.70;99357.00;;;;10398990;28;20199;-74
2020/12/30 03:25:19;;;;;;;52.73;26.17;;;;;1.90;99364.00;;;;10391773;28;20258;-74
2020/12/30 03:30:20;;;;;;;57.70;25.50;;;;;2.00;99360.00;;;;10423586;28;20657;-74
2020/12/30 03:35:24;;;;;;;57.43;27.50;;;;;2.10;99368.00;;;;10410666;28;20194;-74
2020/12/30 03:40:26;;;;;;;59.80;27.60;;;;;2.20;99369.00;;;;10407712;28;20191;-74
2020/12/30 03:45:27;;;;;;;68.60;30.13;;;;;2.40;99374.00;;;;10422802;28;20300;-75
2020/12/30 03:50:28;;;;;;;56.27;28.23;;;;;2.50;99371.00;;;;10419151;28;20195;-75
2020/12/30 03:55:31;;;;;;;51.93;26.97;;;;;2.60;99363.00;;;;10392000;28;20195;-75
2020/12/30 04:00:32;;;;;;;47.70;24.67;;;;;2.70;99365.00;;;;10383587;28;20682;-75
2020/12/30 04:05:33;;;;;;;45.53;26.23;;;;;2.70;99367.00;;;;10394600;28;20268;-75
2020/12/30 04:10:35;;;;;;;48.13;24.90;;;;;2.70;99372.00;;;;10415225;28;20653;-75
2020/12/30 04:15:36;;;;;;;44.00;25.73;;;;;2.70;99371.00;;;;10433498;28;20598;-75
2020/12/30 04:20:38;;;;;;;43.40;23.43;;;;;2.70;99377.00;;;;10425783;28;20538;-75
2020/12/30 04:25:39;;;;;;;38.83;22.07;;;;;2.60;99380.00;;;;10419304;28;20206;-75
2020/12/30 04:30:41;;;;;;;44.77;23.60;;;;;2.60;99382.00;;;;10392013;28;20222;-75
2020/12/30 04:35:42;;;;;;;38.33;24.30;;;;;2.50;99388.00;;;;10437048;28;20696;-74
2020/12/30 04:40:44;;;;;;;38.93;23.90;;;;;2.60;99390.00;;;;10445977;28;20194;-75
2020/12/30 04:45:45;;;;;;;40.37;23.87;;;;;2.60;99390.00;;;;10427083;28;20775;-75
2020/12/30 04:50:47;;;;;;;43.17;24.40;;;;;2.60;99386.00;;;;10402738;28;20248;-75
2020/12/30 04:55:52;;;;;;;43.27;23.87;;;;;2.50;99387.00;;;;10378499;28;20191;-74
2020/12/30 05:00:56;;;;;;;37.00;22.60;;;;;2.30;99392.00;;;;10392630;28;20225;-75
2020/12/30 05:06:04;;;;;;;37.03;22.43;;;;;2.20;99388.00;;;;10399300;28;20199;-75
2020/12/30 05:11:05;;;;;;;37.53;23.03;;;;;2.30;99390.00;;;;10437828;28;20279;-75
2020/12/30 05:16:07;;;;;;;36.43;22.67;;;;;2.30;99395.00;;;;10432009;28;20203;-75
2020/12/30 05:21:08;;;;;;;40.93;23.40;;;;;2.40;99401.00;;;;10403733;28;20618;-75
2020/12/30 05:26:10;;;;;;;41.20;24.53;;;;;2.50;99405.00;;;;10416059;28;20257;-74
2020/12/30 05:31:12;;;;;;;42.90;25.73;;;;;2.60;99414.00;;;;10400304;28;20201;-75
2020/12/30 05:36:14;;;;;;;43.23;24.57;;;;;2.70;99415.00;;;;10405589;28;20187;-75
2020/12/30 05:41:20;;;;;;;40.77;23.93;;;;;2.80;99423.00;;;;10417505;28;21013;-75
2020/12/30 05:46:29;;;;;;;38.80;23.50;;;;;2.80;99430.00;;;;10396377;28;20562;-75
2020/12/30 05:51:33;;;;;;;45.80;25.87;;;;;2.80;99431.00;;;;10419285;28;20240;-75
2020/12/30 05:56:39;;;;;;;36.20;22.20;;;;;2.80;99429.00;;;;10436349;28;20183;-75
2020/12/30 06:01:44;;;;;;;37.73;21.70;;;;;2.80;99435.00;;;;10428025;28;20230;-75
2020/12/30 06:06:47;;;;;;;34.20;21.53;;;;;2.80;99447.00;;;;10401171;28;20662;-75
2020/12/30 06:11:51;;;;;;;35.43;21.37;;;;;2.80;99449.00;;;;10402054;28;20245;-75
2020/12/30 06:16:55;;;;;;;34.33;20.53;;;;;2.80;99455.00;;;;10404997;28;20198;-75
2020/12/30 06:21:57;;;;;;;35.73;20.83;;;;;2.80;99453.00;;;;10440520;28;20260;-75
2020/12/30 06:27:02;;;;;;;32.73;20.00;;;;;2.80;99460.00;;;;10412219;28;20219;-75
2020/12/30 06:32:03;;;;;;;32.63;19.93;;;;;2.80;99476.00;;;;10375408;28;20249;-75
2020/12/30 06:37:05;;;;;;;34.03;19.03;;;;;2.90;99489.00;;;;10418902;28;20270;-74
2020/12/30 06:42:06;;;;;;;37.60;21.03;;;;;2.90;99484.00;;;;10435478;28;20187;-75
2020/12/30 06:47:10;;;;;;;33.40;20.77;;;;;3.00;99501.00;;;;10438087;28;20214;-74
2020/12/30 06:52:28;;;;;;;33.07;21.13;;;;;3.00;99501.00;;;;10424988;28;20198;-75
2020/12/30 06:57:36;;;;;;;39.03;22.50;;;;;3.00;99503.00;;;;10384075;28;20527;-75
2020/12/30 07:02:38;;;;;;;32.30;19.97;;;;;3.00;99519.00;;;;10383043;28;20203;-74
2020/12/30 07:07:39;;;;;;;34.90;19.57;;;;;3.00;99528.00;;;;10413415;28;20231;-74
2020/12/30 07:12:43;;;;;;;35.73;20.73;;;;;3.00;99533.00;;;;10404071;28;20194;-75
2020/12/30 07:17:45;;;;;;;36.70;21.63;;;;;3.00;99537.00;;;;10435026;28;20249;-75
2020/12/30 07:22:47;;;;;;;33.83;21.37;;;;;3.00;99539.00;;;;10393802;28;20256;-75
2020/12/30 07:27:48;;;;;;;31.70;20.77;;;;;2.80;99535.00;;;;10381395;28;20364;-75
2020/12/30 07:32:51;;;;;;;38.70;21.30;;;;;2.70;99540.00;;;;10455620;28;20190;-75
2020/12/30 07:37:59;;;;;;;32.10;19.00;;;;;2.50;99562.00;;;;10423249;28;20542;-75
2020/12/30 07:43:02;;;;;;;37.57;20.93;;;;;2.50;99564.00;;;;10436726;28;20226;-75
2020/12/30 07:48:08;;;;;;;38.73;23.10;;;;;2.60;99582.00;;;;10437967;28;20276;-75
2020/12/30 07:53:17;;;;;;;32.73;20.53;;;;;2.70;99575.00;;;;10405557;28;20577;-75
2020/12/30 07:58:18;;;;;;;40.40;22.33;;;;;2.80;99589.00;;;;10415318;28;20191;-75
2020/12/30 08:03:22;;;;;;;46.10;25.27;;;;;2.90;99601.00;;;;10431228;28;20229;-75
2020/12/30 08:08:24;;;;;;;40.57;22.67;;;;;2.90;99604.00;;;;10405383;28;20643;-75
2020/12/30 08:13:25;;;;;;;41.30;22.83;;;;;3.00;99625.00;;;;10439349;28;20255;-75
2020/12/30 08:18:26;;;;;;;40.07;22.43;;;;;3.00;99619.00;;;;10455718;28;20615;-75
2020/12/30 08:23:28;;;;;;;46.33;25.23;;;;;3.10;99626.00;;;;10433862;28;20241;-75
2020/12/30 08:28:29;;;;;;;47.20;22.90;;;;;3.20;99632.00;;;;10396753;28;20211;-75
2020/12/30 08:33:32;;;;;;;40.67;24.20;;;;;3.20;99639.00;;;;10403380;28;20206;-75
2020/12/30 08:38:34;;;;;;;47.70;26.17;;;;;3.30;99652.00;;;;10388729;28;20198;-75
2020/12/30 08:43:43;;;;;;;48.17;26.70;;;;;3.40;99652.00;;;;10431519;28;20277;-75
2020/12/30 08:48:49;;;;;;;42.50;24.67;;;;;3.50;99657.00;;;;10431774;28;20221;-75
2020/12/30 08:53:51;;;;;;;47.43;24.97;;;;;3.60;99657.00;;;;10428857;28;20186;-75
2020/12/30 08:58:56;;;;;;;47.87;25.60;;;;;3.60;99660.00;;;;10424377;28;20215;-75
2020/12/30 09:04:11;;;;;;;48.57;24.73;;;;;3.60;99671.00;;;;10411922;28;20201;-75
2020/12/30 09:09:19;;;;;;;43.37;24.70;;;;;3.70;99679.00;;;;10403862;28;20191;-75
2020/12/30 09:14:22;;;;;;;50.33;25.27;;;;;3.80;99693.00;;;;10434699;28;20182;-75
2020/12/30 09:19:24;;;;;;;44.93;24.53;;;;;3.90;99687.00;;;;10427283;28;20647;-75
2020/12/30 09:24:34;;;;;;;44.00;24.33;;;;;3.80;99690.00;;;;10415174;28;21717;-75
2020/12/30 09:29:35;;;;;;;42.73;23.77;;;;;4.10;99694.00;;;;10452129;28;20523;-75
2020/12/30 09:34:36;;;;;;;40.17;23.67;;;;;4.20;99698.00;;;;10462401;28;20229;-75
2020/12/30 09:39:38;;;;;;;44.63;23.80;;;;;4.20;99703.00;;;;10429455;28;20901;-75
2020/12/30 09:44:39;;;;;;;36.63;22.20;;;;;4.60;99701.00;;;;10427267;28;20218;-75
2020/12/30 09:49:41;;;;;;;41.20;24.57;;;;;4.90;99703.00;;;;10427065;28;20240;-75
2020/12/30 09:54:43;;;;;;;40.60;23.33;;;;;5.40;99707.00;;;;10427010;28;20239;-75
2020/12/30 09:59:44;;;;;;;35.10;22.07;;;;;5.10;99715.00;;;;10428477;28;20219;-75
2020/12/30 10:04:45;;;;;;;37.97;19.93;;;;;4.80;99727.00;;;;10390100;28;20712;-75
2020/12/30 10:09:47;;;;;;;31.67;19.73;;;;;4.70;99732.00;;;;10401690;28;20191;-75
2020/12/30 10:14:49;;;;;;;35.57;21.87;;;;;5.10;99738.00;;;;10424798;28;20513;-75
2020/12/30 10:19:50;;;;;;;33.63;20.97;;;;;5.10;99739.00;;;;10458913;28;20236;-75
2020/12/30 10:24:51;;;;;;;35.97;19.33;;;;;5.00;99743.00;;;;10353913;28;73947;-75
2020/12/30 10:29:53;;;;;;;30.03;18.13;;;;;5.00;99732.00;;;;10401860;28;20203;-75
2020/12/30 10:34:54;;;;;;;35.80;20.70;;;;;5.20;99739.00;;;;10401564;28;20277;-75
2020/12/30 10:39:55;;;;;;;34.97;19.60;;;;;5.50;99742.00;;;;10384738;28;20195;-75
2020/12/30 10:44:57;;;;;;;36.37;19.70;;;;;5.40;99735.00;;;;10396467;28;20211;-75
2020/12/30 10:49:58;;;;;;;31.47;16.80;;;;;5.30;99727.00;;;;10404838;28;20252;-75
2020/12/30 10:54:59;;;;;;;29.90;18.17;;;;;5.60;99734.00;;;;10424945;28;20306;-76
2020/12/30 11:00:04;;;;;;;32.53;19.07;;;;;6.00;99727.00;;;;10458995;28;20421;-75
2020/12/30 11:05:06;;;;;;;27.43;16.80;;;;;6.20;99728.00;;;;10405613;28;20295;-75
2020/12/30 11:10:08;;;;;;;32.10;18.83;;;;;6.80;99731.00;;;;10421909;28;20199;-75
2020/12/30 11:15:12;;;;;;;32.07;16.80;;;;;7.30;99729.00;;;;10399699;28;20222;-76
2020/12/30 11:20:13;;;;;;;23.77;14.73;;;;;8.00;99715.00;;;;10399615;28;20257;-75
2020/12/30 11:25:14;;;;;;;21.40;13.93;;;;;8.00;99729.00;;;;10411952;28;20211;-75
2020/12/30 11:30:15;;;;;;;21.27;13.67;;;;;7.60;99729.00;;;;10395942;28;20190;-76
2020/12/30 11:35:17;;;;;;;19.97;13.60;;;;;6.80;99726.00;;;;10457334;28;20218;-75
2020/12/30 11:40:18;;;;;;;17.47;12.70;;;;;6.70;99732.00;;;;10409835;28;20206;-75
2020/12/30 11:45:20;;;;;;;17.87;13.40;;;;;7.10;99734.00;;;;10438106;28;20214;-75
2020/12/30 11:50:21;;;;;;;19.33;14.87;;;;;7.40;99740.00;;;;10422045;28;20251;-75
2020/12/30 11:55:23;;;;;;;21.83;13.87;;;;;7.60;99737.00;;;;10366446;28;20191;-75
2020/12/30 12:00:24;;;;;;;18.37;13.40;;;;;7.60;99740.00;;;;10380804;28;20202;-75
2020/12/30 12:05:25;;;;;;;14.53;11.27;;;;;8.20;99734.00;;;;10430017;28;20206;-75
2020/12/30 12:10:27;;;;;;;15.57;10.53;;;;;8.60;99745.00;;;;10392099;28;20609;-75
2020/12/30 12:15:28;;;;;;;15.17;9.87;;;;;8.30;99749.00;;;;10437778;28;20214;-75
2020/12/30 12:20:29;;;;;;;14.40;9.07;;;;;8.20;99746.00;;;;10418805;28;20217;-76
2020/12/30 12:25:30;;;;;;;14.27;10.07;;;;;8.30;99750.00;;;;10438682;28;20292;-76
2020/12/30 12:30:32;;;;;;;15.10;10.63;;;;;8.10;99749.00;;;;10417074;28;20646;-75
2020/12/30 12:35:33;;;;;;;16.13;10.60;;;;;7.40;99750.00;;;;10453340;28;20282;-75
2020/12/30 12:40:35;;;;;;;17.03;10.53;;;;;6.90;99752.00;;;;10387409;28;20245;-75
2020/12/30 12:45:36;;;;;;;13.53;9.57;;;;;6.70;99764.00;;;;10420998;28;20218;-75
2020/12/30 12:50:38;;;;;;;15.40;9.63;;;;;7.20;99763.00;;;;10442829;28;20189;-75
2020/12/30 12:55:39;;;;;;;12.80;9.37;;;;;7.50;99772.00;;;;10402935;28;20241;-75
2020/12/30 13:00:40;;;;;;;13.87;9.77;;;;;7.30;99781.00;;;;10416837;28;20666;-75
2020/12/30 13:05:45;;;;;;;15.23;9.47;;;;;7.30;99775.00;;;;10407149;28;20677;-75
2020/12/30 13:10:46;;;;;;;14.03;8.80;;;;;7.10;99771.00;;;;10394861;28;20198;-75
2020/12/30 13:15:53;;;;;;;13.37;9.70;;;;;6.90;99788.00;;;;10425095;28;20194;-75
2020/12/30 13:20:59;;;;;;;15.80;9.57;;;;;6.80;99785.00;;;;10436591;28;20222;-75
2020/12/30 13:26:02;;;;;;;17.00;10.27;;;;;6.80;99785.00;;;;10392400;28;20215;-75
2020/12/30 13:31:03;;;;;;;13.17;8.63;;;;;6.70;99788.00;;;;10402971;28;20654;-75
2020/12/30 13:36:05;;;;;;;13.47;8.60;;;;;6.70;99797.00;;;;10370700;28;20629;-75
2020/12/30 13:41:06;;;;;;;15.90;9.17;;;;;6.60;99797.00;;;;10386954;28;20195;-75
2020/12/30 13:46:09;;;;;;;14.73;9.77;;;;;7.00;99797.00;;;;10433394;28;20214;-76
2020/12/30 13:51:11;;;;;;;14.40;8.40;;;;;7.10;99817.00;;;;10399817;28;20605;-75
2020/12/30 13:56:13;;;;;;;14.00;10.50;;;;;7.00;99819.00;;;;10443680;28;20217;-75
2020/12/30 14:01:15;;;;;;;12.90;8.37;;;;;6.70;99828.00;;;;10432350;28;20226;-76
2020/12/30 14:06:23;;;;;;;11.03;7.03;;;;;6.70;99809.00;;;;10406371;28;20257;-76
2020/12/30 14:11:25;;;;;;;11.20;7.57;;;;;6.50;99819.00;;;;10390880;28;20205;-76
2020/12/30 14:16:26;;;;;;;9.83;6.40;;;;;6.30;99828.00;;;;10410521;28;20194;-76
2020/12/30 14:21:27;;;;;;;11.70;5.43;;;;;6.20;99834.00;;;;10442656;28;20724;-75
2020/12/30 14:26:29;;;;;;;9.73;5.17;;;;;6.00;99843.00;;;;10431416;28;20237;-77
2020/12/30 14:31:30;;;;;;;7.50;5.77;;;;;5.80;99832.00;;;;10419120;28;20253;-76
2020/12/30 14:36:33;;;;;;;7.87;5.67;;;;;5.60;99851.00;;;;10446186;28;20220;-76
2020/12/30 14:41:35;;;;;;;13.20;7.47;;;;;5.60;99852.00;;;;10405857;28;20194;-76
2020/12/30 14:46:37;;;;;;;12.70;7.83;;;;;5.60;99858.00;;;;10418976;28;20268;-76
2020/12/30 14:51:38;;;;;;;11.43;8.57;;;;;5.50;99863.00;;;;10405685;28;20218;-76
2020/12/30 14:56:39;;;;;;;12.67;7.90;;;;;5.60;99862.00;;;;10425821;28;20206;-76
2020/12/30 15:01:41;;;;;;;11.73;7.77;;;;;5.50;99871.00;;;;10457901;28;20232;-76
2020/12/30 15:06:42;;;;;;;10.67;6.87;;;;;5.40;99872.00;;;;10392756;28;20291;-76
2020/12/30 15:11:43;;;;;;;9.83;6.50;;;;;5.20;99873.00;;;;10422815;28;20657;-76
2020/12/30 15:16:46;;;;;;;9.67;6.37;;;;;5.00;99878.00;;;;10388223;28;20183;-76
2020/12/30 15:21:48;;;;;;;12.63;7.23;;;;;4.90;99870.00;;;;10398585;28;20206;-76
2020/12/30 15:26:49;;;;;;;12.57;7.87;;;;;4.90;99878.00;;;;10414960;28;20314;-76
2020/12/30 15:31:50;;;;;;;12.40;9.37;;;;;5.00;99882.00;;;;10379501;28;20606;-76
2020/12/30 15:36:52;;;;;;;18.40;12.17;;;;;5.00;99883.00;;;;10401579;28;20740;-76
2020/12/30 15:41:53;;;;;;;17.23;10.43;;;;;5.00;99893.00;;;;10407557;28;20289;-76
2020/12/30 15:46:55;;;;;;;15.80;9.90;;;;;5.00;99894.00;;;;10423818;28;20203;-76
2020/12/30 15:51:56;;;;;;;16.47;11.07;;;;;5.00;99898.00;;;;10395357;28;20194;-76
2020/12/30 15:56:57;;;;;;;13.83;8.57;;;;;5.00;99900.00;;;;10412369;28;20187;-76
2020/12/30 16:01:59;;;;;;;15.80;8.03;;;;;5.00;99909.00;;;;10412323;28;20210;-76
2020/12/30 16:07:03;;;;;;;10.73;7.53;;;;;5.00;99906.00;;;;10427568;28;20256;-76
2020/12/30 16:12:05;;;;;;;12.70;7.07;;;;;4.90;99897.00;;;;10452611;28;20728;-76
2020/12/30 16:17:06;;;;;;;10.30;6.40;;;;;4.90;99901.00;;;;10471396;28;20200;-75
2020/12/30 16:22:07;;;;;;;11.10;6.83;;;;;4.80;99902.00;;;;10495730;28;20186;-76
2020/12/30 16:27:08;;;;;;;15.77;10.17;;;;;4.70;99906.00;;;;10478964;28;20301;-75
2020/12/30 16:32:10;;;;;;;14.93;10.20;;;;;4.70;99908.00;;;;10478191;28;20193;-75
2020/12/30 16:37:11;;;;;;;12.87;8.67;;;;;4.70;99902.00;;;;10461199;28;20194;-75
2020/12/30 16:42:12;;;;;;;14.17;8.47;;;;;4.80;99904.00;;;;10478845;28;20326;-75
2020/12/30 16:47:14;;;;;;;12.83;7.07;;;;;4.80;99904.00;;;;10478142;28;20615;-75
2020/12/30 16:52:15;;;;;;;11.67;8.07;;;;;4.80;99906.00;;;;10494775;28;20193;-76
2020/12/30 16:57:16;;;;;;;12.80;8.40;;;;;4.80;99910.00;;;;10461577;28;20221;-75
2020/12/30 17:02:20;;;;;;;12.67;9.50;;;;;4.70;99907.00;;;;10496956;28;20227;-75
2020/12/30 17:07:22;;;;;;;13.27;9.47;;;;;4.70;99903.00;;;;10503419;28;20193;-75
2020/12/30 17:12:23;;;;;;;14.70;9.77;;;;;4.70;99905.00;;;;10469349;28;20217;-75
2020/12/30 17:17:25;;;;;;;13.17;8.57;;;;;4.70;99899.00;;;;10412749;28;20198;-75
2020/12/30 17:22:26;;;;;;;14.10;8.40;;;;;4.80;99896.00;;;;10461350;28;20264;-76
2020/12/30 17:27:27;;;;;;;14.57;8.30;;;;;4.80;99899.00;;;;10444555;28;20234;-76
2020/12/30 17:32:31;;;;;;;14.40;9.37;;;;;4.80;99898.00;;;;10443678;28;20202;-76
2020/12/30 17:37:38;;;;;;;17.43;9.63;;;;;4.70;99903.00;;;;10427287;28;20222;-75
2020/12/30 17:42:39;;;;;;;16.93;9.80;;;;;4.70;99898.00;;;;10443994;28;20276;-76
2020/12/30 17:47:42;;;;;;;17.07;10.80;;;;;4.60;99894.00;;;;10459908;28;20206;-76
2020/12/30 17:52:44;;;;;;;16.17;10.23;;;;;4.60;99901.00;;;;10427496;28;20198;-76
2020/12/30 17:57:45;;;;;;;18.80;11.47;;;;;4.60;99904.00;;;;10443510;28;20241;-75
2020/12/30 18:02:47;;;;;;;18.43;11.70;;;;;4.50;99906.00;;;;10459240;28;20617;-76
2020/12/30 18:07:49;;;;;;;20.07;11.47;;;;;4.60;99912.00;;;;10442522;28;20976;-75
2020/12/30 18:12:50;;;;;;;16.90;11.80;;;;;4.60;99903.00;;;;10442201;28;20284;-76
2020/12/30 18:17:51;;;;;;;25.60;12.23;;;;;4.70;99911.00;;;;10425075;28;20229;-75
2020/12/30 18:22:53;;;;;;;24.10;11.80;;;;;4.70;99910.00;;;;10425709;28;20197;-75
2020/12/30 18:27:54;;;;;;;17.13;11.17;;;;;4.70;99908.00;;;;10442219;28;20248;-76
2020/12/30 18:32:55;;;;;;;13.57;8.50;;;;;4.60;99916.00;;;;10458817;28;20236;-76
2020/12/30 18:37:57;;;;;;;7.43;5.30;;;;;4.40;99921.00;;;;10458573;28;20959;-77
2020/12/30 18:42:58;;;;;;;9.30;5.10;;;;;4.10;99927.00;;;;10438769;28;20219;-76
2020/12/30 18:47:59;;;;;;;11.23;5.83;;;;;4.00;99929.00;;;;10418406;28;20277;-76
2020/12/30 18:53:02;;;;;;;11.50;7.13;;;;;3.90;99932.00;;;;10400861;28;20194;-76
2020/12/30 18:58:03;;;;;;;11.27;7.10;;;;;3.90;99933.00;;;;10400721;28;20191;-76
2020/12/30 19:03:05;;;;;;;8.87;6.30;;;;;3.80;99927.00;;;;10383323;28;20629;-76
2020/12/30 19:08:07;;;;;;;8.87;5.20;;;;;3.70;99923.00;;;;10416671;28;20298;-76
2020/12/30 19:13:08;;;;;;;7.90;4.23;;;;;3.60;99915.00;;;;10404741;28;20206;-76
2020/12/30 19:18:10;;;;;;;3.07;2.60;;;;;3.40;99913.00;;;;10441468;28;20221;-76
2020/12/30 19:23:11;;;;;;;4.23;3.37;;;;;3.30;99922.00;;;;10458466;28;20213;-75
2020/12/30 19:28:13;;;;;;;3.83;3.40;;;;;3.30;99911.00;;;;10439765;28;20207;-75
2020/12/30 19:33:15;;;;;;;5.57;3.90;;;;;3.30;99916.00;;;;10456864;28;20191;-75
2020/12/30 19:38:16;;;;;;;4.23;3.03;;;;;3.40;99910.00;;;;10440554;28;20605;-75
2020/12/30 19:43:17;;;;;;;5.40;3.07;;;;;3.40;99910.00;;;;10456383;28;20256;-75
2020/12/30 19:48:19;;;;;;;5.03;3.93;;;;;3.40;99922.00;;;;10423745;28;20210;-76
2020/12/30 19:53:20;;;;;;;5.63;3.90;;;;;3.30;99926.00;;;;10439689;28;20229;-76
2020/12/30 19:58:22;;;;;;;5.63;4.17;;;;;3.30;99932.00;;;;10438910;28;20194;-76
2020/12/30 20:03:23;;;;;;;6.13;3.73;;;;;3.30;99928.00;;;;10406008;28;20650;-76
2020/12/30 20:08:24;;;;;;;4.73;3.63;;;;;3.30;99931.00;;;;10438698;28;20237;-76
2020/12/30 20:13:26;;;;;;;4.93;3.43;;;;;3.30;99923.00;;;;10448277;28;20198;-76
2020/12/30 20:18:28;;;;;;;4.13;3.20;;;;;3.30;99929.00;;;;10415595;28;20233;-76
2020/12/30 20:23:29;;;;;;;6.57;3.70;;;;;3.30;99917.00;;;;10397522;28;20194;-76
2020/12/30 20:28:30;;;;;;;5.73;3.90;;;;;3.30;99923.00;;;;10380876;28;20261;-75
2020/12/30 20:33:31;;;;;;;5.03;3.47;;;;;3.30;99923.00;;;;10415374;28;20193;-76
2020/12/30 20:38:33;;;;;;;4.93;3.53;;;;;3.20;99918.00;;;;10379902;28;20249;-76
2020/12/30 20:43:35;;;;;;;3.83;3.43;;;;;3.20;99906.00;;;;10422484;28;20285;-76
2020/12/30 20:48:36;;;;;;;5.33;3.57;;;;;3.20;99912.00;;;;10421490;28;20677;-76
2020/12/30 20:53:39;;;;;;;5.60;4.00;;;;;3.20;99906.00;;;;10454346;28;20190;-76
2020/12/30 20:58:40;;;;;;;5.70;4.93;;;;;3.10;99902.00;;;;10438297;28;20222;-76
2020/12/30 21:03:42;;;;;;;6.07;4.60;;;;;3.10;99904.00;;;;10437718;28;20190;-76
2020/12/30 21:08:43;;;;;;;7.20;4.50;;;;;3.10;99901.00;;;;10437520;28;20209;-76
2020/12/30 21:13:45;;;;;;;7.07;3.60;;;;;3.10;99910.00;;;;10427254;28;20285;-76
2020/12/30 21:18:48;;;;;;;4.60;3.77;;;;;3.10;99906.00;;;;10412635;28;20669;-76
2020/12/30 21:23:49;;;;;;;4.80;4.33;;;;;3.10;99921.00;;;;10379831;28;20195;-75
2020/12/30 21:28:51;;;;;;;7.37;4.50;;;;;3.00;99908.00;;;;10379902;28;20210;-76
2020/12/30 21:33:52;;;;;;;5.33;4.00;;;;;3.00;99907.00;;;;10396001;28;20191;-76
2020/12/30 21:38:55;;;;;;;5.17;3.13;;;;;3.10;99918.00;;;;10413983;28;20183;-76
2020/12/30 21:43:56;;;;;;;5.83;2.87;;;;;3.00;99915.00;;;;10425131;28;20249;-76
2020/12/30 21:48:57;;;;;;;3.10;2.77;;;;;3.00;99913.00;;;;10438983;28;20642;-76
2020/12/30 21:54:00;;;;;;;3.77;2.50;;;;;3.00;99912.00;;;;10461306;28;20248;-75
2020/12/30 21:59:06;;;;;;;4.37;2.47;;;;;3.00;99907.00;;;;10460563;28;20198;-75
2020/12/30 22:04:07;;;;;;;3.73;2.10;;;;;3.00;99897.00;;;;10460865;28;20190;-75
2020/12/30 22:09:08;;;;;;;2.50;1.90;;;;;3.00;99897.00;;;;10427395;28;20689;-75
2020/12/30 22:14:10;;;;;;;5.17;2.03;;;;;3.00;99900.00;;;;10426738;28;20206;-75
2020/12/30 22:19:11;;;;;;;3.10;1.67;;;;;3.00;99891.00;;;;10427048;28;20218;-75
2020/12/30 22:24:13;;;;;;;4.40;2.43;;;;;3.00;99894.00;;;;10443552;28;20186;-75
2020/12/30 22:29:14;;;;;;;2.93;2.47;;;;;3.00;99898.00;;;;10461249;28;20206;-75
2020/12/30 22:34:15;;;;;;;3.80;2.40;;;;;2.90;99887.00;;;;10442822;28;20277;-75
2020/12/30 22:39:17;;;;;;;2.53;1.97;;;;;3.00;99875.00;;;;10443190;28;20191;-75
2020/12/30 22:44:18;;;;;;;4.33;3.40;;;;;3.00;99880.00;;;;10442398;28;20300;-75
2020/12/30 22:49:19;;;;;;;4.80;2.90;;;;;3.00;99884.00;;;;10442773;28;20213;-76
2020/12/30 22:54:20;;;;;;;5.73;3.20;;;;;3.00;99879.00;;;;10426079;28;20190;-75
2020/12/30 22:59:22;;;;;;;4.57;3.10;;;;;3.00;99880.00;;;;10458442;28;20265;-75
2020/12/30 23:04:23;;;;;;;4.73;3.40;;;;;3.00;99882.00;;;;10441777;28;20215;-76
2020/12/30 23:09:25;;;;;;;7.50;3.83;;;;;3.00;99878.00;;;;10442174;28;21004;-75
2020/12/30 23:14:26;;;;;;;4.17;3.60;;;;;3.00;99883.00;;;;10441673;28;20264;-75
2020/12/30 23:19:28;;;;;;;7.80;4.20;;;;;3.00;99861.00;;;;10441050;28;20190;-75
2020/12/30 23:24:29;;;;;;;9.00;4.60;;;;;3.00;99862.00;;;;10440961;28;20244;-75
2020/12/30 23:29:30;;;;;;;5.93;4.60;;;;;3.10;99858.00;;;;10457709;28;20230;-75
2020/12/30 23:34:32;;;;;;;6.37;5.17;;;;;3.10;99842.00;;;;10441053;28;20197;-75
2020/12/30 23:39:33;;;;;;;7.57;6.00;;;;;3.10;99849.00;;;;10441004;28;20214;-75
2020/12/30 23:44:36;;;;;;;8.33;5.83;;;;;3.10;99848.00;;;;10440282;28;20226;-75
2020/12/30 23:49:37;;;;;;;8.53;6.23;;;;;3.10;99840.00;;;;10457048;28;20206;-75
2020/12/30 23:54:38;;;;;;;12.13;6.37;;;;;3.10;99836.00;;;;10423287;28;20194;-75
2020/12/30 23:59:41;;;;;;;7.63;5.67;;;;;3.20;99831.00;;;;10439912;28;20235;-75
